الصفحة الرئيسية
METAR-TAF:

METAR-TAF

مطار :

Bluefields, نيكاراغوا

دائرة عرض: 12-00N, خط طول: 083-46W, ارتفاع: 5 متر

مراقبة الطقس الحالي

تاريخ ووقت الإصدار 1ساعة و 6 دقيقة قبل الساعة 18:00UTC
ريح 4 عقدة من الشرق
درجة الحرارة 29°درجة مئوية
الرطوبة 84%
ضغط 1013 hPa
الرؤية 10 كم أو أكثر
غيوم مفككة على ارتفاع 1700 قدم

METAR: MNBL 141800Z 08004KT 9999 BKN017 29/26 Q1013

زمن: 13:06 (19:06 UTC)

توقعات

تاريخ ووقت الإصدار 3ساعات و 46 دقيقة قبل الساعة 15:20UTC
التوقعات صالحة من14 الساعة 18 UTC إلى 15 الساعة 18 UTC
ريح 6 عقدة من الشرق
الرؤية 10 كم أو أكثر
غيوم مفككة على ارتفاع 1600 قدم
غيوم متفرقة على ارتفاع 7000 قدم
أصبح
من 14 الساعة 21 UTC إلى 14 الساعة 23 UTC
ريح 10 عقدة من الشمال الشرقي
الرؤية: 6000 متر
مؤقت
من 15 الساعة 01 UTC إلى 15 الساعة 10 UTC
ريح 6 عقدة من الشرق/الشمال الشرقي
الرؤية 10 كم أو أكثر
غيوم مفككة على ارتفاع 1600 قدم
أصبح
من 15 الساعة 12 UTC إلى 15 الساعة 14 UTC
الرؤية: 7000 متر
غيوم متفرقة على ارتفاع 7000 قدم

TAF: MNBL 141520Z 1418/1518 10006KT 9999 BKN016 SCT070 BECMG 1421/1423 05010KT 6000 VCSH/DZ TEMPO 1501/1510 06006KT 9999 BKN016 BECMG 1512/1514 7000 VCSH/DZ SCT070

أرصاد الطقس والتوقعات من أكثر من 4000 مطار (تقارير الطقس للمطار METAR والتنبؤ بالطقس بالمطارTAF).

المحطات المتاحة هي النقط الصفراء والحمراء على الخريطة.

حرك المؤشر فوق النقطة لمعرفة اسم المحطة.

ثم انقر لمعرفة أرصاد وتوقعات الطقس.

لتغيير الخارطة: اضغط على الأزرار الخضراء مع رمز الصليب الأسود للتكبير. على الزر الأخضر مع شرطة للتصغير، أو على الأسهم الخضراء للخرائط المجاورة.


METAR-TAF: